BTS weather

M. R. Štefánik Airport
Bratislava, Bratislava, Slovakia

Public forecast

Using degrees Celsius for public forecast. Weather courtesy of forecast.io.

METAR (pilot weather report)

Retrieved 2019/06/16 13:30 UTC (23 minutes ago):

LZIB 161330Z 30015KT 270V330 9999 FEW033 27/18 Q1016 NOSIG

TAF (pilot weather forecast)

Retrieved 2019/06/16 12:00 UTC (2 hours ago):

TAF LZIB 161100Z 1612/1712 34012KT 9999 FEW030 SCT070 TEMPO 1612/1615 32016G26KT 7000 -TSRA SCT040CB BKN050 TEMPO 1615/1620 SHRA SCT036 BKN045 BECMG 1700/1702 CAVOK BECMG 1706/1708 04010KT 9999 SCT035